Time;durP1;ratioP1;P1;durP2;ratioP2;P2;SDS_P1;SDS_P2;PMS_P1;PMS_P2;Temp;Humidity;BMP_temperature;BMP_pressure;BME280_temperature;BME280_humidity;BME280_pressure;Samples;Min_cycle;Max_cycle;Signal;HPM_P1;HPM_P2
2022/08/01 00:03:06;;;;;;;38.25;21.63;;;13.60;99.90;;;;;;10428176;28;20103;-82
2022/08/01 00:08:06;;;;;;;59.40;28.13;;;13.60;99.90;;;;;;10455249;28;20261;-81
2022/08/01 00:13:07;;;;;;;50.13;27.35;;;13.50;99.90;;;;;;10454881;28;20725;-81
2022/08/01 00:18:07;;;;;;;48.88;25.95;;;13.40;99.90;;;;;;10462604;28;20411;-81
2022/08/01 00:23:08;;;;;;;61.30;30.58;;;13.40;99.90;;;;;;10448116;28;20427;-81
2022/08/01 00:28:09;;;;;;;63.92;33.15;;;13.40;99.90;;;;;;10469935;28;20530;-82
2022/08/01 00:33:10;;;;;;;115.32;39.53;;;13.30;99.90;;;;;;10458316;28;20036;-82
2022/08/01 00:38:11;;;;;;;83.80;36.13;;;13.30;99.90;;;;;;10461337;28;20041;-82
2022/08/01 00:43:11;;;;;;;91.47;37.85;;;13.20;99.90;;;;;;10448166;28;20021;-82
2022/08/01 00:48:12;;;;;;;74.70;35.70;;;13.20;99.90;;;;;;10455880;28;20036;-82
2022/08/01 00:53:12;;;;;;;174.93;48.35;;;13.10;99.90;;;;;;10447409;28;20025;-81
2022/08/01 00:58:13;;;;;;;68.38;33.38;;;13.10;99.90;;;;;;10448136;28;20048;-81
2022/08/01 01:03:14;;;;;;;122.75;43.85;;;13.00;99.90;;;;;;10457263;28;20028;-81
2022/08/01 01:08:24;;;;;;;90.20;37.97;;;13.00;99.90;;;;;;10456617;28;20464;-82
2022/08/01 01:13:36;;;;;;;79.70;37.80;;;13.00;99.90;;;;;;10460390;28;20563;-81
2022/08/01 01:18:58;;;;;;;65.93;33.63;;;13.00;99.90;;;;;;10449865;28;20036;-81
2022/08/01 01:24:11;;;;;;;73.13;34.22;;;12.90;99.90;;;;;;10458233;28;20407;-82
2022/08/01 01:29:11;;;;;;;73.32;31.40;;;12.80;99.90;;;;;;10468004;28;20052;-82
2022/08/01 01:34:15;;;;;;;94.55;39.50;;;12.80;99.90;;;;;;10463862;28;20460;-81
2022/08/01 01:39:16;;;;;;;91.90;39.22;;;12.70;99.90;;;;;;10459371;28;20052;-81
2022/08/01 01:44:18;;;;;;;119.63;44.42;;;12.70;99.90;;;;;;10470765;28;20024;-81
2022/08/01 01:49:25;;;;;;;69.22;36.10;;;12.70;99.90;;;;;;10456817;28;20107;-82
2022/08/01 01:54:31;;;;;;;86.13;36.50;;;12.60;99.90;;;;;;10460224;28;20391;-82
2022/08/01 01:59:34;;;;;;;498.73;87.63;;;12.60;99.90;;;;;;10458183;28;20116;-82
2022/08/01 02:04:37;;;;;;;121.88;42.13;;;12.60;99.90;;;;;;10456653;28;20036;-82
2022/08/01 02:09:41;;;;;;;104.82;42.58;;;12.60;99.90;;;;;;10453184;28;20136;-82
2022/08/01 02:14:44;;;;;;;170.40;43.30;;;12.50;99.90;;;;;;10459457;28;20543;-82
2022/08/01 02:19:45;;;;;;;69.00;27.63;;;12.50;99.90;;;;;;10456165;28;20041;-82
2022/08/01 02:24:50;;;;;;;89.00;35.38;;;12.40;99.90;;;;;;10452488;28;20706;-82
2022/08/01 02:29:59;;;;;;;53.07;27.60;;;12.30;99.90;;;;;;10463332;28;20601;-82
2022/08/01 02:35:03;;;;;;;60.28;31.67;;;12.30;99.90;;;;;;10460566;28;20029;-82
2022/08/01 02:40:05;;;;;;;68.60;33.47;;;12.30;99.90;;;;;;10455202;28;20041;-81
2022/08/01 02:45:08;;;;;;;83.53;35.83;;;12.30;99.90;;;;;;10443360;28;20445;-82
2022/08/01 02:50:12;;;;;;;70.65;31.58;;;12.30;99.90;;;;;;10464847;28;20032;-82
2022/08/01 02:55:13;;;;;;;85.70;33.63;;;12.30;99.90;;;;;;10470007;23;20060;-82
2022/08/01 03:00:16;;;;;;;50.42;27.70;;;12.30;99.90;;;;;;10421421;23;20065;-81
2022/08/01 03:05:17;;;;;;;188.10;46.65;;;12.20;99.90;;;;;;10403040;28;20051;-81
2022/08/01 03:10:18;;;;;;;206.10;53.85;;;12.20;99.90;;;;;;10427294;28;20124;-81
2022/08/01 03:15:20;;;;;;;150.80;48.50;;;12.20;99.90;;;;;;10449287;28;20025;-81
2022/08/01 03:20:24;;;;;;;129.65;43.92;;;12.20;99.90;;;;;;10441720;28;20044;-81
2022/08/01 03:25:26;;;;;;;38.92;24.55;;;12.20;99.90;;;;;;10447566;28;20025;-81
2022/08/01 03:30:29;;;;;;;99.50;38.08;;;12.20;99.90;;;;;;10447105;28;20260;-80
2022/08/01 03:35:35;;;;;;;93.45;37.55;;;12.20;99.90;;;;;;10445092;28;20382;-82
2022/08/01 03:40:40;;;;;;;;;;;12.20;99.90;;;;;;10437135;28;20120;-81
2022/08/01 03:45:44;;;;;;;55.20;27.60;;;12.20;99.90;;;;;;10446405;28;19924;-80
2022/08/01 03:50:51;;;;;;;104.90;35.15;;;12.20;99.90;;;;;;10439511;28;20021;-81
2022/08/01 03:55:53;;;;;;;84.20;34.50;;;12.20;99.90;;;;;;10425680;28;20064;-80
2022/08/01 04:00:55;;;;;;;32.28;21.83;;;12.20;99.90;;;;;;10446928;28;20049;-83
2022/08/01 04:05:56;;;;;;;76.78;34.38;;;12.30;99.90;;;;;;10438591;28;20043;-80
2022/08/01 04:10:58;;;;;;;32.33;20.75;;;12.40;99.90;;;;;;10439216;28;20110;-80
2022/08/01 04:15:59;;;;;;;67.40;31.40;;;12.50;99.90;;;;;;10445289;28;20064;-80
2022/08/01 04:20:59;;;;;;;27.25;19.20;;;12.60;99.90;;;;;;10437338;28;20047;-80
2022/08/01 04:26:03;;;;;;;29.90;20.00;;;12.70;99.90;;;;;;10444474;28;20029;-81
2022/08/01 04:31:09;;;;;;;31.25;19.80;;;12.70;99.90;;;;;;10439839;28;20439;-80
2022/08/01 04:36:12;;;;;;;65.40;28.23;;;12.80;99.90;;;;;;10435979;28;20098;-80
2022/08/01 04:41:14;;;;;;;25.33;18.17;;;12.80;99.90;;;;;;10436257;28;20033;-80
2022/08/01 04:46:15;;;;;;;27.85;19.40;;;12.90;99.90;;;;;;10437867;28;20477;-79
2022/08/01 04:51:17;;;;;;;30.42;20.08;;;13.10;99.90;;;;;;10442824;28;20032;-80
2022/08/01 04:56:20;;;;;;;39.08;22.10;;;13.20;99.90;;;;;;10424193;28;20771;-80
2022/08/01 05:01:20;;;;;;;34.72;21.75;;;13.40;99.90;;;;;;10455842;28;20103;-80
2022/08/01 05:06:21;;;;;;;31.40;21.45;;;13.70;99.90;;;;;;10452999;28;20117;-80
2022/08/01 05:11:22;;;;;;;33.45;23.27;;;13.90;99.90;;;;;;10451497;28;20029;-80
2022/08/01 05:16:22;;;;;;;44.72;26.73;;;14.10;99.90;;;;;;10455826;28;20036;-80
2022/08/01 05:21:23;;;;;;;124.63;37.80;;;14.30;99.90;;;;;;10452697;28;20028;-80
2022/08/01 05:26:23;;;;;;;56.15;27.63;;;14.50;99.90;;;;;;10448051;28;20498;-80
2022/08/01 05:31:24;;;;;;;90.25;30.98;;;14.70;99.90;;;;;;10456163;28;20032;-80
2022/08/01 05:36:24;;;;;;;50.65;27.90;;;14.80;99.90;;;;;;10449985;28;20029;-79
2022/08/01 05:41:26;;;;;;;46.17;27.35;;;15.10;99.90;;;;;;10455602;28;20029;-81
2022/08/01 05:46:26;;;;;;;45.45;26.98;;;15.40;99.90;;;;;;10454276;28;20353;-80
2022/08/01 05:51:27;;;;;;;31.40;22.42;;;15.50;99.90;;;;;;10449578;28;20034;-80
2022/08/01 05:56:28;;;;;;;33.53;24.35;;;15.60;99.90;;;;;;10450533;28;20032;-80
2022/08/01 06:01:28;;;;;;;37.17;26.10;;;15.70;99.90;;;;;;10456633;28;20520;-80
2022/08/01 06:06:29;;;;;;;39.05;25.98;;;15.70;99.90;;;;;;10451319;28;20033;-79
2022/08/01 06:11:29;;;;;;;43.65;27.45;;;15.90;99.90;;;;;;10449118;28;20036;-79
2022/08/01 06:16:30;;;;;;;41.95;27.50;;;16.00;99.90;;;;;;10457819;28;20496;-80
2022/08/01 06:21:31;;;;;;;41.55;26.90;;;16.10;99.90;;;;;;10449495;28;20036;-80
2022/08/01 06:26:31;;;;;;;38.15;25.67;;;16.40;99.90;;;;;;10446246;28;20029;-80
2022/08/01 06:31:32;;;;;;;38.03;27.65;;;16.50;99.90;;;;;;10455287;28;20020;-80
2022/08/01 06:36:32;;;;;;;33.47;24.70;;;16.80;99.90;;;;;;10447821;28;20029;-80
2022/08/01 06:41:33;;;;;;;31.45;23.75;;;16.90;99.90;;;;;;10449671;28;20056;-80
2022/08/01 06:46:34;;;;;;;33.30;24.15;;;17.10;99.90;;;;;;10458987;28;20032;-79
2022/08/01 06:51:35;;;;;;;28.02;19.88;;;17.30;99.90;;;;;;10449240;28;20036;-80
2022/08/01 06:56:35;;;;;;;23.52;16.70;;;17.60;99.90;;;;;;10425577;28;20732;-80
2022/08/01 07:01:36;;;;;;;26.58;20.58;;;17.90;99.90;;;;;;10444477;28;20045;-80
2022/08/01 07:06:37;;;;;;;23.15;16.92;;;18.20;99.90;;;;;;10446093;28;20767;-80
2022/08/01 07:11:37;;;;;;;24.92;17.88;;;19.00;99.90;;;;;;10444492;28;20651;-80
2022/08/01 07:16:38;;;;;;;16.15;12.82;;;20.40;99.90;;;;;;10443347;28;20465;-80
2022/08/01 07:21:39;;;;;;;15.52;11.02;;;21.40;99.90;;;;;;10445363;28;20230;-80
2022/08/01 07:26:46;;;;;;;16.02;10.35;;;22.10;99.90;;;;;;10442184;28;20048;-80
2022/08/01 07:31:46;;;;;;;17.80;10.20;;;22.30;99.90;;;;;;10443585;28;20041;-80
2022/08/01 07:36:47;;;;;;;11.98;9.18;;;22.60;99.90;;;;;;10440987;28;20159;-81
2022/08/01 07:41:47;;;;;;;12.68;9.50;;;22.70;99.90;;;;;;10447268;28;20017;-81
2022/08/01 07:46:48;;;;;;;13.18;9.52;;;22.70;99.90;;;;;;10446953;28;20021;-80
2022/08/01 07:51:49;;;;;;;13.63;8.80;;;22.60;99.90;;;;;;10423548;28;20017;-80
2022/08/01 07:56:50;;;;;;;9.27;6.70;;;22.50;99.90;;;;;;10422372;28;20026;-80
2022/08/01 08:01:54;;;;;;;10.80;6.97;;;22.50;99.90;;;;;;10446488;28;20045;-80
2022/08/01 08:06:57;;;;;;;9.15;6.45;;;22.70;99.90;;;;;;10423957;28;20568;-81
2022/08/01 08:11:58;;;;;;;7.03;5.28;;;23.00;99.90;;;;;;10424802;28;20025;-80
2022/08/01 08:16:59;;;;;;;5.82;5.22;;;23.50;99.90;;;;;;10408799;28;20044;-80
2022/08/01 08:22:00;;;;;;;9.15;5.18;;;24.00;99.90;;;;;;10420115;28;20036;-80
2022/08/01 08:27:02;;;;;;;7.47;4.72;;;24.30;99.90;;;;;;10439951;28;20057;-81
2022/08/01 08:32:03;;;;;;;6.07;4.00;;;24.00;99.90;;;;;;10445184;28;20025;-80
2022/08/01 08:37:04;;;;;;;8.48;4.72;;;23.90;99.90;;;;;;10403499;28;20032;-80
2022/08/01 08:42:10;;;;;;;6.65;4.70;;;24.10;99.90;;;;;;10442773;28;20032;-81
2022/08/01 08:47:13;;;;;;;5.43;4.43;;;24.40;99.90;;;;;;10427105;28;20111;-81
2022/08/01 08:52:15;;;;;;;6.40;4.35;;;24.40;99.90;;;;;;10430950;28;20039;-81
2022/08/01 08:57:18;;;;;;;9.82;4.50;;;24.40;99.90;;;;;;10439274;28;20126;-80
2022/08/01 09:02:18;;;;;;;7.43;4.45;;;23.90;99.90;;;;;;10433439;28;20500;-80
2022/08/01 09:07:19;;;;;;;6.10;4.07;;;23.60;99.90;;;;;;10430714;28;20041;-81
2022/08/01 09:12:20;;;;;;;6.05;3.65;;;23.50;99.90;;;;;;10430132;28;20041;-80
2022/08/01 09:17:21;;;;;;;7.25;3.70;;;23.30;99.90;;;;;;10435470;28;20037;-79
2022/08/01 09:22:23;;;;;;;7.78;4.20;;;23.00;99.90;;;;;;10432950;28;20033;-80
2022/08/01 09:27:25;;;;;;;5.88;3.75;;;22.90;99.90;;;;;;10442613;28;20031;-80
2022/08/01 09:32:25;;;;;;;6.72;4.03;;;22.90;99.90;;;;;;10439013;28;20024;-80
2022/08/01 09:37:32;;;;;;;5.32;3.45;;;23.00;99.90;;;;;;10427895;28;20384;-80
2022/08/01 09:42:33;;;;;;;4.18;3.53;;;23.10;99.90;;;;;;10436928;28;20112;-80
2022/08/01 09:47:38;;;;;;;6.57;3.70;;;23.10;99.90;;;;;;10450556;28;20014;-80
2022/08/01 09:52:39;;;;;;;5.05;3.97;;;23.10;99.90;;;;;;10426111;28;20021;-80
2022/08/01 09:57:39;;;;;;;4.95;4.45;;;23.10;99.90;;;;;;10436530;28;20053;-80
2022/08/01 10:02:40;;;;;;;6.13;4.38;;;23.20;99.90;;;;;;10449662;28;20036;-80
2022/08/01 10:08:02;;;;;;;6.28;5.05;;;23.20;99.90;;;;;;10447382;28;20021;-80
2022/08/01 10:13:04;;;;;;;8.57;4.78;;;23.40;99.90;;;;;;10441978;28;20026;-81
2022/08/01 10:18:08;;;;;;;8.75;5.00;;;23.50;99.90;;;;;;10443210;28;20033;-81
2022/08/01 10:23:09;;;;;;;8.63;5.40;;;23.70;99.90;;;;;;10440369;28;20025;-81
2022/08/01 10:28:18;;;;;;;7.65;5.28;;;24.00;99.90;;;;;;10441676;28;20029;-80
2022/08/01 10:33:21;;;;;;;7.13;5.07;;;24.60;99.90;;;;;;10434108;28;20025;-80
2022/08/01 10:38:23;;;;;;;9.38;6.47;;;24.70;99.90;;;;;;10441654;28;20045;-80
2022/08/01 10:43:23;;;;;;;7.50;5.93;;;24.80;99.90;;;;;;10438970;28;20091;-80
2022/08/01 10:48:29;;;;;;;10.50;6.30;;;24.90;99.90;;;;;;10452059;28;20100;-80
2022/08/01 10:53:30;;;;;;;8.57;6.50;;;25.20;99.90;;;;;;10446846;28;20024;-80
2022/08/01 10:58:37;;;;;;;7.63;6.15;;;25.20;99.90;;;;;;10445233;28;20587;-81
2022/08/01 11:03:37;;;;;;;7.95;7.05;;;25.30;99.90;;;;;;10451913;28;20037;-80
2022/08/01 11:08:39;;;;;;;12.90;7.20;;;25.40;99.90;;;;;;10442710;28;20036;-81
2022/08/01 11:13:58;;;;;;;9.48;7.05;;;25.30;99.90;;;;;;10443898;28;20032;-79
2022/08/01 11:18:59;;;;;;;9.32;6.05;;;25.30;99.90;;;;;;10451401;28;20045;-80
2022/08/01 11:24:00;;;;;;;10.35;7.55;;;25.30;99.90;;;;;;10437863;28;20370;-80
2022/08/01 11:29:15;;;;;;;6.88;6.15;;;25.20;99.90;;;;;;10443886;28;20033;-80
2022/08/01 11:34:16;;;;;;;9.02;6.55;;;25.30;99.90;;;;;;10437835;28;20025;-80
2022/08/01 11:39:18;;;;;;;6.05;4.82;;;25.20;99.90;;;;;;10443905;28;20779;-82
2022/08/01 11:44:25;;;;;;;5.13;4.45;;;25.40;99.90;;;;;;10446074;28;20021;-80
2022/08/01 11:49:32;;;;;;;7.43;5.13;;;25.40;99.90;;;;;;10426394;28;20099;-82
2022/08/01 11:54:43;;;;;;;7.93;5.22;;;25.20;99.90;;;;;;10440347;28;20021;-79
2022/08/01 11:59:45;;;;;;;7.40;4.93;;;25.20;99.90;;;;;;10449841;28;20060;-80
2022/08/01 12:04:57;;;;;;;6.85;4.97;;;25.80;99.90;;;;;;10443804;28;20045;-80
2022/08/01 12:10:06;;;;;;;6.68;4.45;;;26.50;99.90;;;;;;10444642;28;20040;-80
2022/08/01 12:15:09;;;;;;;5.70;3.75;;;26.80;99.90;;;;;;10450900;28;20094;-80
2022/08/01 12:20:13;;;;;;;5.43;4.53;;;26.90;99.90;;;;;;10444173;28;20048;-82
2022/08/01 12:25:18;;;;;;;5.10;4.07;;;27.00;99.90;;;;;;10445009;28;20032;-80
2022/08/01 12:30:30;;;;;;;5.60;4.27;;;27.10;99.90;;;;;;10452235;28;20087;-80
2022/08/01 12:35:32;;;;;;;7.35;4.88;;;27.30;99.90;;;;;;10443457;28;20124;-80
2022/08/01 12:40:34;;;;;;;10.50;5.25;;;27.40;99.90;;;;;;10438937;28;20131;-81
2022/08/01 12:45:44;;;;;;;6.28;4.78;;;26.90;99.90;;;;;;10448471;28;20025;-80
2022/08/01 12:50:49;;;;;;;11.77;4.68;;;26.60;99.90;;;;;;10424776;28;20120;-80
2022/08/01 12:55:53;;;;;;;6.45;3.88;;;26.40;99.90;;;;;;10438511;28;20630;-81
2022/08/01 13:01:06;;;;;;;9.48;4.65;;;26.20;99.90;;;;;;10441676;28;20072;-82
2022/08/01 13:06:14;;;;;;;5.43;4.32;;;26.10;99.90;;;;;;10441762;28;20483;-81
2022/08/01 13:11:16;;;;;;;5.43;3.50;;;25.70;99.90;;;;;;10444147;28;20111;-80
2022/08/01 13:16:19;;;;;;;3.50;3.20;;;25.60;99.90;;;;;;10446005;28;20108;-80
2022/08/01 13:21:23;;;;;;;4.30;3.50;;;26.10;99.90;;;;;;10444656;28;20094;-81
2022/08/01 13:27:10;;;;;;;7.68;4.43;;;26.30;99.90;;;;;;10452335;28;20049;-80
2022/08/01 13:32:15;;;;;;;5.45;4.03;;;26.60;99.90;;;;;;10412356;28;20135;-80
2022/08/01 13:37:15;;;;;;;6.22;4.60;;;26.90;99.90;;;;;;10445693;28;20120;-80
2022/08/01 13:42:16;;;;;;;6.72;3.70;;;26.70;99.70;;;;;;10457775;28;20082;-80
2022/08/01 13:47:17;;;;;;;4.90;3.80;;;26.20;99.90;;;;;;10452113;28;20040;-81
2022/08/01 13:52:17;;;;;;;3.67;3.25;;;26.30;99.90;;;;;;10450391;28;20060;-81
2022/08/01 13:57:18;;;;;;;4.63;2.85;;;26.20;99.90;;;;;;10441855;28;20171;-81
2022/08/01 14:02:19;;;;;;;5.03;3.38;;;26.40;99.90;;;;;;10457306;28;20033;-81
2022/08/01 14:07:20;;;;;;;3.90;3.50;;;26.50;99.90;;;;;;10451226;28;20080;-80
2022/08/01 14:12:21;;;;;;;4.40;3.70;;;26.50;99.90;;;;;;10449691;28;20484;-79
2022/08/01 14:17:21;;;;;;;5.60;3.97;;;26.80;99.90;;;;;;10447926;28;20036;-79
2022/08/01 14:22:22;;;;;;;4.63;3.88;;;27.00;99.90;;;;;;10450335;28;20036;-80
2022/08/01 14:27:22;;;;;;;5.70;3.65;;;26.90;99.90;;;;;;10445761;28;20586;-81
2022/08/01 14:32:23;;;;;;;4.15;3.75;;;26.60;99.90;;;;;;10451498;28;20469;-80
2022/08/01 14:37:23;;;;;;;5.07;4.45;;;26.10;99.90;;;;;;10447100;28;20436;-81
2022/08/01 14:42:24;;;;;;;6.20;4.78;;;25.70;99.90;;;;;;10452486;28;20033;-81
2022/08/01 14:47:25;;;;;;;4.60;4.13;;;25.40;99.90;;;;;;10446051;28;20503;-82
2022/08/01 14:52:26;;;;;;;4.55;4.03;;;25.10;99.90;;;;;;10445790;28;20037;-80
2022/08/01 14:57:26;;;;;;;6.25;4.45;;;24.80;99.90;;;;;;10433800;28;20122;-80
2022/08/01 15:02:27;;;;;;;5.75;4.93;;;24.50;99.90;;;;;;10427975;28;20036;-81
2022/08/01 15:07:27;;;;;;;6.70;5.28;;;24.10;99.90;;;;;;10434314;28;20036;-81
2022/08/01 15:12:28;;;;;;;6.25;4.75;;;23.80;99.90;;;;;;10422274;28;20049;-82
2022/08/01 15:17:32;;;;;;;8.27;5.15;;;23.70;99.90;;;;;;10445565;28;20086;-81
2022/08/01 15:22:33;;;;;;;6.38;5.78;;;23.60;99.90;;;;;;10440411;28;20548;-82
2022/08/01 15:27:33;;;;;;;9.88;7.80;;;23.30;99.90;;;;;;10416342;28;20046;-82
2022/08/01 15:32:34;;;;;;;10.75;7.95;;;22.90;99.90;;;;;;10437629;28;20027;-82
2022/08/01 15:37:34;;;;;;;15.30;9.35;;;22.40;99.90;;;;;;10436335;28;20037;-84
2022/08/01 15:42:35;;;;;;;14.00;12.27;;;21.60;99.90;;;;;;10437361;28;20028;-85
2022/08/01 15:47:35;;;;;;;17.08;14.50;;;20.90;99.90;;;;;;10443397;28;20385;-83
2022/08/01 15:52:36;;;;;;;25.52;19.45;;;20.50;99.90;;;;;;10425746;28;20476;-83
2022/08/01 15:57:37;;;;;;;25.10;19.90;;;20.20;99.90;;;;;;10431830;28;20135;-81
2022/08/01 16:02:38;;;;;;;28.75;23.38;;;20.00;99.90;;;;;;10446318;28;20032;-83
2022/08/01 16:07:39;;;;;;;27.25;19.95;;;20.00;99.90;;;;;;10443992;28;20029;-86
2022/08/01 16:12:39;;;;;;;21.92;18.73;;;19.90;99.90;;;;;;10446530;28;20047;-85
2022/08/01 16:17:40;;;;;;;26.30;20.52;;;19.70;99.90;;;;;;10424247;28;20052;-83
2022/08/01 16:22:40;;;;;;;54.88;32.70;;;19.40;99.90;;;;;;10441802;28;20116;-83
2022/08/01 16:27:41;;;;;;;82.15;43.95;;;19.30;99.90;;;;;;10444102;28;20396;-82
2022/08/01 16:32:41;;;;;;;67.93;39.83;;;19.20;99.90;;;;;;10444154;28;20035;-81
2022/08/01 16:37:42;;;;;;;74.32;42.17;;;19.30;99.90;;;;;;10434128;28;20033;-83
2022/08/01 16:42:43;;;;;;;74.80;42.78;;;19.30;99.90;;;;;;10444241;28;20033;-82
2022/08/01 16:47:43;;;;;;;43.38;31.38;;;19.40;99.90;;;;;;10438077;28;20108;-82
2022/08/01 16:52:44;;;;;;;106.45;51.60;;;19.40;99.90;;;;;;10435976;28;20029;-82
2022/08/01 16:57:44;;;;;;;45.33;34.05;;;19.60;99.90;;;;;;10439292;28;20190;-84
2022/08/01 17:02:45;;;;;;;32.58;24.60;;;19.80;99.90;;;;;;10446007;28;20033;-83
2022/08/01 17:07:46;;;;;;;30.02;23.50;;;19.80;99.90;;;;;;10442864;28;20029;-82
2022/08/01 17:12:47;;;;;;;33.97;26.90;;;19.70;99.90;;;;;;10448778;28;20017;-83
2022/08/01 17:17:50;;;;;;;37.75;28.02;;;19.70;99.90;;;;;;10420264;28;20033;-83
2022/08/01 17:22:50;;;;;;;48.70;30.92;;;19.70;99.90;;;;;;10441824;28;20029;-83
2022/08/01 17:27:52;;;;;;;45.35;31.50;;;19.80;99.90;;;;;;10445096;28;20021;-84
2022/08/01 17:32:53;;;;;;;37.35;29.15;;;19.90;99.90;;;;;;10436435;28;20021;-83
2022/08/01 17:37:53;;;;;;;48.55;34.47;;;20.10;99.90;;;;;;10432603;28;20021;-84
2022/08/01 17:42:54;;;;;;;212.90;71.30;;;20.20;99.90;;;;;;10421432;28;20435;-84
2022/08/01 17:47:54;;;;;;;68.20;40.47;;;20.30;99.90;;;;;;10435560;28;20481;-83
2022/08/01 17:52:55;;;;;;;124.80;52.50;;;20.30;99.90;;;;;;10435834;28;20507;-83
2022/08/01 17:57:56;;;;;;;100.20;48.10;;;20.20;99.90;;;;;;10447090;28;20191;-84
2022/08/01 18:02:56;;;;;;;62.50;39.08;;;20.10;99.90;;;;;;10435788;28;20037;-85
2022/08/01 18:07:58;;;;;;;43.78;33.30;;;19.90;99.90;;;;;;10447426;28;20039;-86
2022/08/01 18:13:00;;;;;;;70.22;41.25;;;19.80;99.90;;;;;;10438742;28;20055;-86
2022/08/01 18:18:01;;;;;;;87.53;45.25;;;19.70;99.90;;;;;;10447579;28;20048;-84
2022/08/01 18:23:01;;;;;;;67.10;41.45;;;19.60;99.90;;;;;;10447000;28;20037;-82
2022/08/01 18:28:03;;;;;;;174.05;61.05;;;19.50;99.90;;;;;;10446972;28;20043;-82
2022/08/01 18:33:04;;;;;;;145.50;57.00;;;19.40;99.90;;;;;;10447469;28;20037;-83
2022/08/01 18:38:04;;;;;;;142.88;56.88;;;19.40;99.90;;;;;;10436212;28;20476;-82
2022/08/01 18:43:05;;;;;;;93.45;48.08;;;19.20;99.90;;;;;;10443148;28;20036;-82
2022/08/01 18:48:06;;;;;;;160.98;57.72;;;19.00;99.90;;;;;;10438601;28;20269;-82
2022/08/01 18:53:07;;;;;;;234.98;71.40;;;18.90;99.90;;;;;;10439565;28;20036;-83
2022/08/01 18:58:07;;;;;;;301.60;77.70;;;18.80;99.90;;;;;;10433015;28;20094;-83
2022/08/01 19:03:08;;;;;;;113.15;51.15;;;18.60;99.90;;;;;;10443090;28;20037;-82
2022/08/01 19:08:10;;;;;;;177.90;61.03;;;18.50;99.90;;;;;;10444381;28;20135;-82
2022/08/01 19:13:10;;;;;;;283.55;75.60;;;18.50;99.90;;;;;;10445568;28;20037;-82
2022/08/01 19:18:11;;;;;;;168.40;59.30;;;18.50;99.90;;;;;;10441749;28;20037;-82
2022/08/01 19:28:40;;;;;;;111.05;46.40;;;18.40;99.90;;;;;;10450051;28;20392;-82
2022/08/01 19:33:41;;;;;;;543.35;118.22;;;18.30;99.90;;;;;;10438382;28;20029;-83
2022/08/01 19:38:43;;;;;;;155.07;59.25;;;18.20;99.90;;;;;;10422386;28;20088;-82
2022/08/01 19:43:45;;;;;;;443.88;95.70;;;18.10;99.90;;;;;;10452836;28;20055;-83
2022/08/01 19:48:48;;;;;;;231.57;71.90;;;18.00;99.90;;;;;;10445436;28;20029;-83
2022/08/01 19:53:52;;;;;;;358.55;86.93;;;17.90;99.90;;;;;;10427301;28;20036;-83
2022/08/01 19:58:53;;;;;;;199.02;65.35;;;17.80;99.90;;;;;;10444587;28;20088;-82
2022/08/01 20:03:55;;;;;;;420.15;102.20;;;17.70;99.90;;;;;;10440662;28;20526;-83
2022/08/01 20:08:57;;;;;;;280.17;84.53;;;17.60;99.90;;;;;;10440295;28;20453;-82
2022/08/01 20:13:59;;;;;;;147.93;64.22;;;17.60;99.90;;;;;;10432256;28;20392;-84
2022/08/01 20:18:59;;;;;;;140.68;68.93;;;17.70;99.90;;;;;;10427014;28;20045;-81
2022/08/01 20:24:01;;;;;;;120.43;64.00;;;17.70;99.90;;;;;;10426951;28;20060;-81
2022/08/01 20:29:03;;;;;;;124.22;59.90;;;17.80;99.90;;;;;;10437231;28;20592;-82
2022/08/01 20:34:03;;;;;;;65.50;43.05;;;17.80;99.90;;;;;;10440041;28;20047;-84
2022/08/01 20:39:05;;;;;;;129.95;62.78;;;17.90;99.90;;;;;;10437937;28;20060;-82
2022/08/01 20:44:07;;;;;;;81.03;52.17;;;17.90;99.90;;;;;;10441796;28;20102;-82
2022/08/01 20:49:11;;;;;;;93.72;53.15;;;17.90;99.90;;;;;;10439602;28;20033;-82
2022/08/01 20:54:11;;;;;;;107.25;58.25;;;18.00;99.90;;;;;;10424851;28;20047;-83
2022/08/01 20:59:23;;;;;;;89.57;53.72;;;18.00;99.90;;;;;;10434646;28;20056;-83
2022/08/01 21:04:42;;;;;;;73.75;46.83;;;18.00;99.90;;;;;;10441438;28;20036;-82
2022/08/01 21:09:48;;;;;;;63.22;44.05;;;18.00;99.90;;;;;;10437398;28;20453;-81
2022/08/01 21:14:54;;;;;;;95.30;55.28;;;18.10;99.90;;;;;;10426331;28;20085;-82
2022/08/01 21:19:56;;;;;;;;;;;18.10;99.90;;;;;;10437824;28;20120;-81
2022/08/01 21:25:04;;;;;;;52.25;34.55;;;18.10;99.90;;;;;;10443167;28;19908;-81
2022/08/01 21:30:07;;;;;;;48.33;32.92;;;18.10;99.90;;;;;;10441669;28;20024;-81
2022/08/01 21:35:08;;;;;;;71.75;41.03;;;18.20;99.90;;;;;;10435861;28;20128;-82
2022/08/01 21:40:09;;;;;;;47.95;31.98;;;18.20;99.90;;;;;;10437563;28;20751;-82
2022/08/01 21:45:13;;;;;;;52.75;34.67;;;18.30;99.90;;;;;;10427097;28;20123;-81
2022/08/01 21:50:13;;;;;;;43.35;31.55;;;18.30;99.90;;;;;;10444184;28;20037;-83
2022/08/01 21:55:22;;;;;;;43.00;30.60;;;18.30;99.90;;;;;;10447700;28;20424;-81
2022/08/01 22:00:23;;;;;;;65.95;40.10;;;18.30;99.90;;;;;;10443817;28;20103;-81
2022/08/01 22:05:28;;;;;;;50.72;33.90;;;18.30;99.90;;;;;;10449470;28;20593;-81
2022/08/01 22:10:29;;;;;;;50.05;32.33;;;18.20;99.90;;;;;;10416761;28;20439;-82
2022/08/01 22:15:30;;;;;;;79.93;39.67;;;18.20;99.90;;;;;;10448315;28;20618;-81
2022/08/01 22:20:31;;;;;;;55.80;33.05;;;18.10;99.90;;;;;;10444714;28;20041;-80
2022/08/01 22:25:32;;;;;;;73.78;38.15;;;18.00;99.90;;;;;;10449830;28;20021;-82
2022/08/01 22:30:38;;;;;;;60.85;33.90;;;18.00;99.90;;;;;;10446769;28;20025;-81
2022/08/01 22:35:39;;;;;;;71.55;37.00;;;18.00;99.90;;;;;;10444750;28;20083;-81
2022/08/01 22:40:47;;;;;;;59.83;33.20;;;18.00;99.90;;;;;;10448731;28;20586;-81
2022/08/01 22:45:58;;;;;;;63.17;34.00;;;17.90;99.90;;;;;;10426122;28;20048;-81
2022/08/01 22:51:13;;;;;;;52.75;29.73;;;17.80;99.90;;;;;;10447915;28;20155;-81
2022/08/01 22:56:14;;;;;;;37.10;25.53;;;17.70;99.90;;;;;;10427174;28;20025;-81
2022/08/01 23:01:21;;;;;;;34.38;23.45;;;17.70;99.90;;;;;;10446023;28;20412;-81
2022/08/01 23:06:33;;;;;;;32.05;22.52;;;17.70;99.90;;;;;;10441855;28;20098;-81
2022/08/01 23:11:34;;;;;;;37.33;23.75;;;17.80;99.90;;;;;;10444160;28;20068;-82
2022/08/01 23:16:35;;;;;;;33.40;22.77;;;17.80;99.90;;;;;;10446154;28;20025;-84
2022/08/01 23:21:37;;;;;;;35.90;23.05;;;17.70;99.90;;;;;;10441241;28;20510;-83
2022/08/01 23:26:38;;;;;;;32.05;22.30;;;17.80;99.90;;;;;;10427520;28;20119;-81
2022/08/01 23:31:39;;;;;;;30.67;20.15;;;17.70;99.90;;;;;;10444168;28;20021;-83
2022/08/01 23:36:40;;;;;;;30.65;21.13;;;17.70;99.90;;;;;;10443520;28;20025;-81
2022/08/01 23:41:40;;;;;;;31.17;20.02;;;17.70;99.90;;;;;;10422401;28;20408;-82
2022/08/01 23:46:41;;;;;;;26.63;18.40;;;17.60;99.90;;;;;;10442707;28;20033;-82
2022/08/01 23:51:41;;;;;;;40.17;23.40;;;17.50;99.90;;;;;;10444384;28;20532;-81
2022/08/01 23:56:42;;;;;;;30.95;20.60;;;17.50;99.90;;;;;;10445902;28;20033;-81
